Time;durP1;ratioP1;P1;durP2;ratioP2;P2;SDS_P1;SDS_P2;PMS_P1;PMS_P2;Temp;Humidity;BMP_temperature;BMP_pressure;BME280_temperature;BME280_humidity;BME280_pressure;Samples;Min_cycle;Max_cycle;Signal;HPM_P1;HPM_P2
2022/03/31 00:03:04;;;;;;;20.50;15.20;;;;;;;9.42;61.70;97349.92;233091;1219;140223;-60
2022/03/31 00:08:10;;;;;;;21.70;14.00;;;;;;;9.29;61.72;97346.27;233184;1219;140305;-58
2022/03/31 00:13:31;;;;;;;17.60;13.30;;;;;;;9.25;61.87;97370.65;232991;1219;140200;-58
2022/03/31 00:18:34;;;;;;;19.40;13.70;;;;;;;9.28;61.85;97365.97;233036;1219;139654;-58
2022/03/31 00:23:37;;;;;;;19.00;14.90;;;;;;;9.26;61.90;97359.61;232958;1219;140386;-59
2022/03/31 00:28:40;;;;;;;22.60;15.60;;;;;;;9.24;61.99;97366.80;233024;1219;139593;-59
2022/03/31 00:33:43;;;;;;;19.40;14.50;;;;;;;9.23;61.96;97367.77;233010;1219;139524;-59
2022/03/31 00:44:08;;;;;;;20.20;14.00;;;;;;;9.08;61.78;97365.17;233012;1219;141084;-59
2022/03/31 00:49:11;;;;;;;20.90;13.80;;;;;;;8.89;61.41;97368.52;232869;1220;139377;-58
2022/03/31 00:54:16;;;;;;;20.00;14.00;;;;;;;8.74;61.47;97367.94;232896;1220;139803;-59
2022/03/31 00:59:19;;;;;;;18.20;13.00;;;;;;;8.66;61.55;97371.84;233009;1219;139019;-58
2022/03/31 01:04:22;;;;;;;20.20;13.70;;;;;;;8.54;61.71;97366.90;233190;1219;139380;-58
2022/03/31 01:09:25;;;;;;;21.10;14.10;;;;;;;8.48;61.58;97373.02;233020;1219;140057;-58
2022/03/31 01:14:29;;;;;;;25.50;15.10;;;;;;;8.43;61.46;97375.28;233160;1219;139475;-58
2022/03/31 01:19:33;;;;;;;21.50;14.30;;;;;;;8.37;61.55;97372.02;233125;1219;140438;-59
2022/03/31 01:24:36;;;;;;;23.20;14.70;;;;;;;8.28;61.63;97373.92;233041;1219;139539;-58
2022/03/31 01:29:39;;;;;;;23.50;14.70;;;;;;;8.18;61.39;97375.78;233006;1219;139390;-59
2022/03/31 01:34:42;;;;;;;21.20;14.70;;;;;;;8.08;61.56;97382.58;233105;1219;140114;-60
2022/03/31 01:39:45;;;;;;;22.20;14.50;;;;;;;7.97;61.63;97379.73;232804;1220;139289;-58
2022/03/31 01:44:52;;;;;;;21.30;14.60;;;;;;;7.90;61.72;97385.05;232906;1219;139529;-59
2022/03/31 01:49:55;;;;;;;20.50;13.30;;;;;;;7.89;62.02;97383.70;233082;1219;139358;-60
2022/03/31 01:54:58;;;;;;;19.40;13.60;;;;;;;7.85;61.89;97384.73;232786;1220;139265;-58
2022/03/31 02:00:03;;;;;;;16.30;11.60;;;;;;;7.81;62.11;97386.45;232841;1219;140661;-59
2022/03/31 02:05:16;;;;;;;15.00;10.80;;;;;;;7.79;61.98;97379.73;233090;1219;140110;-59
2022/03/31 02:10:19;;;;;;;12.70;10.50;;;;;;;7.80;61.91;97383.17;232967;1219;142380;-58
2022/03/31 02:15:22;;;;;;;13.40;10.70;;;;;;;7.83;61.89;97382.60;232967;1219;139509;-58
2022/03/31 02:20:27;;;;;;;13.60;10.00;;;;;;;7.80;62.10;97382.95;232921;1219;139452;-57
2022/03/31 02:25:30;;;;;;;13.60;10.30;;;;;;;7.79;62.23;97387.62;233187;1219;139304;-57
2022/03/31 02:30:33;;;;;;;13.80;9.60;;;;;;;7.76;62.08;97388.41;233000;1219;140799;-58
2022/03/31 02:35:36;;;;;;;11.90;9.10;;;;;;;7.73;62.28;97389.01;232899;1219;139487;-59
2022/03/31 02:40:39;;;;;;;11.10;7.90;;;;;;;7.70;62.11;97389.63;232940;1221;139863;-59
2022/03/31 02:45:42;;;;;;;10.50;7.90;;;;;;;7.65;62.15;97384.13;232683;1220;139256;-60
2022/03/31 02:50:45;;;;;;;11.00;6.80;;;;;;;7.61;62.04;97376.05;232858;1220;141271;-59
2022/03/31 02:55:48;;;;;;;8.40;5.90;;;;;;;7.54;62.14;97371.45;232933;1219;138970;-58
2022/03/31 03:00:51;;;;;;;7.10;5.40;;;;;;;7.50;62.40;97371.52;233062;1219;139727;-57
2022/03/31 03:05:54;;;;;;;6.60;5.40;;;;;;;7.52;62.35;97380.40;232997;1219;139280;-59
2022/03/31 03:11:00;;;;;;;7.50;5.60;;;;;;;7.53;62.68;97389.86;233173;1219;139334;-57
2022/03/31 03:16:08;;;;;;;6.90;5.40;;;;;;;7.54;62.51;97396.48;232994;1219;138979;-57
2022/03/31 03:21:11;;;;;;;74.30;58.20;;;;;;;7.54;62.69;97395.23;232908;1220;139088;-58
2022/03/31 03:26:14;;;;;;;12.70;8.60;;;;;;;7.60;62.66;97394.09;232994;1219;139774;-58
2022/03/31 03:31:17;;;;;;;7.70;5.60;;;;;;;7.61;62.77;97398.56;232968;1219;138847;-59
2022/03/31 03:36:20;;;;;;;5.80;4.90;;;;;;;7.56;62.50;97403.90;232931;1219;139222;-59
2022/03/31 03:41:23;;;;;;;6.90;4.50;;;;;;;7.48;62.55;97401.85;232979;1219;138837;-60
2022/03/31 03:46:26;;;;;;;5.80;4.20;;;;;;;7.37;62.15;97402.30;233078;1219;138676;-57
2022/03/31 03:51:29;;;;;;;25.00;15.60;;;;;;;7.31;62.48;97404.91;233000;1219;138461;-58
2022/03/31 03:56:32;;;;;;;6.70;4.20;;;;;;;7.42;62.98;97413.96;232974;1219;139417;-59
2022/03/31 04:01:38;;;;;;;5.00;4.00;;;;;;;7.44;62.50;97417.55;233088;1219;139052;-61
2022/03/31 04:06:42;;;;;;;4.90;3.90;;;;;;;7.40;62.35;97411.29;232989;1219;139540;-61
2022/03/31 04:11:45;;;;;;;7.40;5.10;;;;;;;7.35;62.17;97413.96;233010;1219;138807;-58
2022/03/31 04:16:48;;;;;;;18.90;10.50;;;;;;;7.32;62.58;97416.27;233011;1219;138809;-59
2022/03/31 04:21:51;;;;;;;3.70;3.00;;;;;;;7.29;62.43;97427.42;232995;1219;139491;-58
2022/03/31 04:26:55;;;;;;;3.40;2.60;;;;;;;7.21;62.26;97430.38;232932;1220;139319;-60
2022/03/31 04:31:58;;;;;;;2.90;2.60;;;;;;;7.14;62.51;97440.60;232966;1220;138642;-59
2022/03/31 04:37:01;;;;;;;3.50;2.80;;;;;;;7.08;62.60;97447.02;232846;1220;139016;-59
2022/03/31 04:42:05;;;;;;;5.20;2.90;;;;;;;7.01;62.56;97449.86;233000;1219;141163;-62
2022/03/31 04:47:11;;;;;;;2.70;2.50;;;;;;;6.91;62.41;97451.27;233120;1220;140581;-58
2022/03/31 04:52:17;;;;;;;3.30;2.40;;;;;;;6.88;62.52;97453.59;232978;1220;139030;-58
2022/03/31 04:57:21;;;;;;;3.10;2.60;;;;;;;6.91;62.94;97465.34;232945;1220;139378;-58
2022/03/31 05:02:24;;;;;;;4.10;2.90;;;;;;;6.94;63.07;97471.48;232883;1219;140015;-57
2022/03/31 05:07:27;;;;;;;4.90;3.10;;;;;;;6.96;62.91;97469.74;232941;1220;139691;-57
2022/03/31 05:12:30;;;;;;;3.50;3.10;;;;;;;6.94;62.92;97473.23;232940;1221;139627;-55
2022/03/31 05:17:34;;;;;;;4.90;3.50;;;;;;;6.92;63.01;97476.57;232920;1220;138511;-58
2022/03/31 05:22:39;;;;;;;3.20;2.90;;;;;;;6.91;63.16;97474.89;232891;1220;139481;-58
2022/03/31 05:27:45;;;;;;;3.10;2.70;;;;;;;6.87;63.34;97476.71;232975;1220;139287;-59
2022/03/31 05:32:48;;;;;;;3.60;2.90;;;;;;;6.86;63.02;97483.90;232887;1220;138989;-59
2022/03/31 05:37:51;;;;;;;2.70;2.40;;;;;;;6.83;63.27;97489.20;232973;1220;138620;-59
2022/03/31 05:42:55;;;;;;;3.60;2.40;;;;;;;6.85;63.13;97499.66;233019;1220;141668;-59
2022/03/31 05:47:58;;;;;;;3.40;2.80;;;;;;;6.91;63.10;97505.77;232976;1220;139216;-57
2022/03/31 05:53:01;;;;;;;3.10;2.80;;;;;;;6.93;63.21;97501.74;232977;1220;138828;-59
2022/03/31 05:58:04;;;;;;;3.90;3.00;;;;;;;6.92;63.26;97504.06;232983;1219;138547;-57
2022/03/31 06:03:07;;;;;;;2.90;2.60;;;;;;;6.91;63.21;97502.76;233024;1220;139031;-58
2022/03/31 06:08:10;;;;;;;4.30;2.80;;;;;;;6.86;63.08;97491.27;232932;1220;138863;-60
2022/03/31 06:13:16;;;;;;;3.20;2.90;;;;;;;6.82;63.19;97489.30;233028;1220;139585;-58
2022/03/31 06:18:19;;;;;;;2.90;2.60;;;;;;;6.76;63.02;97491.82;232893;1220;139139;-58
2022/03/31 06:23:23;;;;;;;6.00;3.10;;;;;;;6.69;63.11;97489.34;233155;1220;138918;-57
2022/03/31 06:28:28;;;;;;;3.00;2.70;;;;;;;6.64;63.15;97493.20;233053;1220;139865;-55
2022/03/31 06:33:32;;;;;;;4.40;3.20;;;;;;;6.61;63.19;97490.06;233149;1220;139126;-58
2022/03/31 06:38:34;;;;;;;3.90;2.40;;;;;;;6.63;63.33;97501.21;232963;1220;139158;-57
2022/03/31 06:43:40;;;;;;;3.20;2.70;;;;;;;6.67;63.57;97506.73;233015;1220;139575;-57
2022/03/31 06:48:48;;;;;;;3.40;2.20;;;;;;;6.71;63.49;97515.30;233024;1220;139456;-58
2022/03/31 06:53:51;;;;;;;3.10;2.80;;;;;;;6.72;63.62;97512.69;233010;1220;139137;-57
2022/03/31 06:59:00;;;;;;;2.80;2.50;;;;;;;6.74;63.35;97510.47;233135;1220;139384;-56
2022/03/31 07:04:06;;;;;;;3.00;2.70;;;;;;;6.73;63.49;97512.86;232960;1220;139367;-60
2022/03/31 07:09:09;;;;;;;3.40;3.00;;;;;;;6.71;63.33;97520.20;232902;1220;140681;-60
2022/03/31 07:14:13;;;;;;;3.60;3.10;;;;;;;6.70;63.44;97524.00;232862;1220;138671;-59
2022/03/31 07:19:16;;;;;;;3.70;3.10;;;;;;;6.69;63.47;97525.81;232997;1220;141194;-59
2022/03/31 07:24:19;;;;;;;3.50;3.20;;;;;;;6.67;63.55;97533.55;233004;1220;139194;-60
2022/03/31 07:29:22;;;;;;;3.90;3.50;;;;;;;6.67;63.52;97533.17;233120;1220;138995;-59
2022/03/31 07:34:25;;;;;;;3.70;3.20;;;;;;;6.71;63.51;97538.01;232968;1220;139203;-59
2022/03/31 07:39:28;;;;;;;4.60;3.50;;;;;;;6.78;63.62;97539.81;232734;1220;141408;-57
2022/03/31 07:44:31;;;;;;;5.60;3.50;;;;;;;6.84;63.52;97549.75;232976;1219;138984;-59
2022/03/31 07:49:34;;;;;;;4.30;3.70;;;;;;;6.87;63.44;97554.49;232993;1220;140303;-59
2022/03/31 07:54:37;;;;;;;4.50;3.60;;;;;;;6.89;63.64;97558.25;232944;1220;139299;-59
2022/03/31 07:59:40;;;;;;;4.60;4.10;;;;;;;6.87;63.46;97558.52;233025;1220;138822;-61
2022/03/31 08:04:44;;;;;;;6.70;4.40;;;;;;;6.83;63.55;97559.52;232280;1220;139786;-59
2022/03/31 08:09:47;;;;;;;4.90;4.10;;;;;;;6.80;63.30;97572.08;232952;1220;138789;-58
2022/03/31 08:14:50;;;;;;;5.30;4.20;;;;;;;6.77;63.49;97571.39;233050;1220;138710;-54
2022/03/31 08:19:53;;;;;;;5.00;4.20;;;;;;;6.77;63.38;97579.66;233030;1220;139368;-58
2022/03/31 08:24:56;;;;;;;5.10;4.50;;;;;;;6.78;63.82;97580.12;233099;1220;139439;-59
2022/03/31 08:30:00;;;;;;;5.90;4.70;;;;;;;6.83;63.75;97582.44;233008;1219;139049;-58
2022/03/31 08:35:04;;;;;;;5.50;4.50;;;;;;;6.87;63.59;97587.30;232984;1220;140411;-58
2022/03/31 08:40:12;;;;;;;5.40;4.50;;;;;;;6.90;63.73;97584.60;233023;1220;139418;-58
2022/03/31 08:45:18;;;;;;;5.00;4.50;;;;;;;6.96;63.60;97581.69;233018;1220;140288;-58
2022/03/31 08:50:21;;;;;;;;;;;;;;;7.01;63.66;97583.11;232913;1220;140372;-58
2022/03/31 08:55:24;;;;;;;15.50;10.90;;;;;;;7.04;63.70;97585.77;232958;1219;125583;-59
2022/03/31 09:00:28;;;;;;;8.10;6.40;;;;;;;7.02;63.54;97578.64;232931;1219;209720;-59
2022/03/31 09:05:41;;;;;;;7.60;6.10;;;;;;;6.97;63.54;97581.45;233100;1219;139123;-59
2022/03/31 09:10:49;;;;;;;6.10;5.40;;;;;;;6.90;63.36;97577.75;232902;1219;138874;-59
2022/03/31 09:15:58;;;;;;;7.80;6.30;;;;;;;6.82;63.33;97579.70;232976;1219;139077;-59
2022/03/31 09:21:04;;;;;;;7.20;6.00;;;;;;;6.80;63.62;97575.97;232828;1219;140073;-61
2022/03/31 09:26:12;;;;;;;7.00;6.00;;;;;;;6.80;63.51;97572.42;232995;1219;139507;-59
2022/03/31 09:31:22;;;;;;;8.40;6.50;;;;;;;6.80;63.68;97575.77;232999;1218;139690;-58
2022/03/31 09:36:26;;;;;;;7.30;6.40;;;;;;;6.82;63.51;97582.66;233021;1219;140170;-57
2022/03/31 09:41:31;;;;;;;9.40;6.70;;;;;;;6.85;63.79;97584.90;233092;1219;138910;-57
2022/03/31 09:46:38;;;;;;;8.30;6.80;;;;;;;6.88;63.73;97584.75;233026;1218;140501;-58
2022/03/31 09:51:44;;;;;;;588.60;394.50;;;;;;;6.85;63.72;97585.62;232970;1218;139186;-59
2022/03/31 09:56:47;;;;;;;35.30;21.10;;;;;;;6.93;64.00;97576.30;232912;1220;140236;-59
2022/03/31 10:01:51;;;;;;;20.40;11.70;;;;;;;6.95;63.75;97580.55;232967;1219;139424;-59
2022/03/31 10:06:55;;;;;;;10.50;8.10;;;;;;;6.87;63.34;97577.73;232996;1220;139042;-58
2022/03/31 10:12:05;;;;;;;7.90;6.70;;;;;;;6.80;63.33;97571.89;232782;1219;138748;-59
2022/03/31 10:17:08;;;;;;;8.80;6.50;;;;;;;6.80;63.70;97572.11;232948;1219;139315;-59
2022/03/31 10:27:43;;;;;;;10.20;7.70;;;;;;;6.82;63.57;97562.20;232935;1219;139542;-61
2022/03/31 10:32:54;;;;;;;9.90;7.60;;;;;;;6.86;63.75;97554.75;232965;1219;140527;-58
2022/03/31 10:38:10;;;;;;;186.10;122.30;;;;;;;6.89;63.68;97556.30;232773;1219;140665;-58
2022/03/31 10:43:19;;;;;;;21.80;15.10;;;;;;;6.97;64.02;97557.67;232832;1219;141200;-60
2022/03/31 10:48:26;;;;;;;30.50;21.00;;;;;;;6.97;63.84;97553.59;232782;1220;140536;-58
2022/03/31 10:53:30;;;;;;;10.30;9.00;;;;;;;6.92;63.60;97556.06;232905;1220;140740;-59
2022/03/31 10:58:33;;;;;;;13.40;9.20;;;;;;;6.85;63.54;97552.63;232835;1220;140493;-58
2022/03/31 11:03:37;;;;;;;11.70;9.10;;;;;;;6.78;63.49;97548.58;232804;1220;140334;-58
2022/03/31 11:08:42;;;;;;;10.40;8.60;;;;;;;6.76;63.69;97554.06;232842;1219;140206;-58
2022/03/31 11:13:45;;;;;;;12.20;9.90;;;;;;;6.76;63.63;97553.70;232931;1219;140387;-57
2022/03/31 11:18:56;;;;;;;12.30;9.50;;;;;;;6.79;64.05;97559.48;232793;1219;138966;-57
2022/03/31 11:23:59;;;;;;;12.00;10.00;;;;;;;6.80;64.01;97551.95;232881;1219;140256;-59
2022/03/31 11:29:02;;;;;;;11.30;9.50;;;;;;;6.83;64.01;97547.20;233071;1219;139377;-58
2022/03/31 11:34:16;;;;;;;12.10;10.00;;;;;;;6.79;63.89;97547.82;232868;1219;138929;-59
2022/03/31 11:39:21;;;;;;;12.30;9.50;;;;;;;6.74;64.13;97540.95;232885;1219;139070;-58
2022/03/31 11:44:26;;;;;;;10.60;9.30;;;;;;;6.68;64.22;97538.94;232831;1219;140438;-58
2022/03/31 11:49:29;;;;;;;12.00;9.40;;;;;;;6.63;64.11;97532.91;232867;1219;138752;-58
2022/03/31 11:54:39;;;;;;;12.30;9.20;;;;;;;6.58;64.26;97530.45;232929;1219;139778;-59
2022/03/31 11:59:42;;;;;;;13.00;9.20;;;;;;;6.55;64.28;97530.82;233096;1219;140732;-59
2022/03/31 12:04:47;;;;;;;13.20;10.70;;;;;;;6.60;64.26;97533.29;232891;1218;139312;-58
2022/03/31 12:09:51;;;;;;;14.70;11.30;;;;;;;6.66;64.57;97529.89;232788;1219;139880;-59
2022/03/31 12:14:58;;;;;;;13.30;10.50;;;;;;;6.69;64.45;97532.36;232894;1219;138862;-58
2022/03/31 12:20:11;;;;;;;11.00;9.50;;;;;;;6.70;64.58;97526.30;233013;1219;141159;-59
2022/03/31 12:25:32;;;;;;;11.60;9.60;;;;;;;6.67;64.35;97522.05;232968;1219;138928;-58
2022/03/31 12:30:47;;;;;;;34.90;22.90;;;;;;;6.67;64.61;97518.77;232918;1219;139259;-59
2022/03/31 12:36:04;;;;;;;16.00;10.90;;;;;;;6.66;64.53;97508.75;232907;1220;140007;-57
2022/03/31 12:41:21;;;;;;;12.40;8.70;;;;;;;6.58;64.35;97501.36;232953;1219;139745;-58
2022/03/31 12:46:28;;;;;;;10.30;7.60;;;;;;;6.58;64.34;97491.34;232863;1219;140739;-58
2022/03/31 12:51:51;;;;;;;11.20;8.80;;;;;;;6.58;64.51;97491.85;232789;1219;139899;-56
2022/03/31 12:57:05;;;;;;;11.60;9.10;;;;;;;6.62;64.59;97482.96;232924;1219;139698;-58
2022/03/31 13:02:10;;;;;;;12.10;8.70;;;;;;;6.63;64.50;97487.46;232946;1219;139384;-57
2022/03/31 13:07:19;;;;;;;9.40;8.00;;;;;;;6.60;64.77;97486.77;232878;1219;139505;-59
2022/03/31 13:12:26;;;;;;;10.10;8.00;;;;;;;6.56;64.54;97495.21;232899;1219;139077;-58
2022/03/31 13:17:30;;;;;;;10.50;8.10;;;;;;;6.52;64.53;97491.05;232920;1219;139570;-59
2022/03/31 13:22:34;;;;;;;40.00;27.30;;;;;;;6.52;64.98;97489.09;232867;1219;140539;-58
2022/03/31 13:27:37;;;;;;;12.00;8.50;;;;;;;6.56;64.91;97486.50;232891;1219;139182;-59
2022/03/31 13:32:40;;;;;;;13.70;8.20;;;;;;;6.59;64.97;97484.59;232906;1219;139856;-59
2022/03/31 13:37:44;;;;;;;9.00;6.90;;;;;;;6.60;64.78;97480.45;232849;1220;139931;-58
2022/03/31 13:42:47;;;;;;;8.30;6.70;;;;;;;6.61;64.96;97477.57;232899;1219;141144;-59
2022/03/31 13:47:50;;;;;;;7.80;6.00;;;;;;;6.61;64.58;97474.17;233029;1219;138895;-59
2022/03/31 14:03:42;;;;;;;9.90;7.20;;;;;;;6.61;64.88;97466.95;232948;1219;139251;-59
2022/03/31 14:08:45;;;;;;;8.80;6.50;;;;;;;6.58;65.07;97459.62;232895;1219;138658;-58
2022/03/31 14:13:49;;;;;;;8.40;6.70;;;;;;;6.55;64.52;97456.12;232901;1219;139067;-58
2022/03/31 14:18:52;;;;;;;7.60;6.40;;;;;;;6.50;64.75;97452.77;232770;1220;138570;-58
2022/03/31 14:23:55;;;;;;;7.70;5.90;;;;;;;6.46;64.98;97447.42;232974;1220;139851;-57
2022/03/31 14:28:59;;;;;;;953.80;581.40;;;;;;;6.51;65.29;97446.21;232892;1219;139502;-58
2022/03/31 14:34:06;;;;;;;22.80;14.80;;;;;;;6.60;65.57;97441.69;232840;1219;139860;-58
2022/03/31 14:39:11;;;;;;;12.30;8.90;;;;;;;6.65;65.02;97441.17;232900;1219;139273;-59
2022/03/31 14:44:19;;;;;;;10.20;8.70;;;;;;;6.63;65.11;97442.70;232960;1220;139116;-58
2022/03/31 14:49:23;;;;;;;9.50;7.80;;;;;;;6.61;65.00;97442.84;232971;1219;138917;-58
2022/03/31 14:54:26;;;;;;;9.70;6.50;;;;;;;6.57;64.70;97437.82;232796;1219;138719;-57
2022/03/31 14:59:29;;;;;;;8.10;6.40;;;;;;;6.50;64.62;97442.23;232929;1219;138278;-58
2022/03/31 15:04:32;;;;;;;9.30;6.90;;;;;;;6.41;64.81;97438.08;232906;1219;138613;-58
2022/03/31 15:14:57;;;;;;;11.10;7.60;;;;;;;6.35;65.52;97430.96;233038;1219;141194;-58
2022/03/31 15:20:00;;;;;;;9.10;6.20;;;;;;;6.37;64.94;97424.29;232914;1219;139715;-58
2022/03/31 15:25:05;;;;;;;6.90;5.50;;;;;;;6.32;64.85;97417.81;233004;1219;140421;-57
2022/03/31 15:30:09;;;;;;;7.80;6.70;;;;;;;6.27;64.74;97414.83;233057;1219;139512;-58
2022/03/31 15:35:12;;;;;;;8.30;6.40;;;;;;;6.20;64.72;97416.91;232922;1219;139798;-59
2022/03/31 15:40:15;;;;;;;7.20;5.80;;;;;;;6.08;64.84;97416.80;232882;1219;139815;-59
2022/03/31 15:45:18;;;;;;;7.90;6.20;;;;;;;6.00;64.69;97412.80;232953;1219;139532;-58
2022/03/31 15:50:23;;;;;;;8.50;6.90;;;;;;;5.93;64.87;97412.77;232755;1219;139958;-58
2022/03/31 15:55:27;;;;;;;529.00;391.80;;;;;;;5.87;65.18;97403.98;232758;1219;138640;-57
2022/03/31 16:00:30;;;;;;;11.60;7.90;;;;;;;5.85;65.18;97403.27;232704;1221;140189;-57
2022/03/31 16:05:34;;;;;;;8.40;6.10;;;;;;;5.82;65.23;97399.95;232863;1220;140362;-58
2022/03/31 16:10:42;;;;;;;8.50;6.00;;;;;;;5.80;64.96;97399.41;232678;1219;139435;-57
2022/03/31 16:15:46;;;;;;;7.80;5.80;;;;;;;5.77;64.74;97396.95;232589;1219;138887;-57
2022/03/31 16:20:49;;;;;;;9.10;6.30;;;;;;;5.76;64.94;97397.38;232620;1219;139057;-59
2022/03/31 16:25:52;;;;;;;9.80;7.00;;;;;;;5.75;65.14;97391.83;232827;1219;138886;-59
2022/03/31 16:30:55;;;;;;;257.30;144.80;;;;;;;5.77;65.44;97390.26;232860;1219;138923;-60
2022/03/31 16:36:03;;;;;;;20.10;13.40;;;;;;;5.94;65.42;97400.02;232955;1219;140059;-59
2022/03/31 16:41:07;;;;;;;10.00;7.50;;;;;;;5.86;65.05;97394.38;232953;1219;139594;-57
2022/03/31 16:46:13;;;;;;;8.60;6.30;;;;;;;5.73;64.94;97389.65;232787;1219;139231;-58
2022/03/31 16:51:16;;;;;;;9.00;6.10;;;;;;;5.65;64.85;97385.42;232838;1219;139067;-57
2022/03/31 16:56:19;;;;;;;7.70;6.00;;;;;;;5.58;64.92;97380.31;232826;1219;139072;-57
2022/03/31 17:01:22;;;;;;;8.30;6.50;;;;;;;5.55;65.07;97385.14;232785;1219;139776;-57
2022/03/31 17:06:26;;;;;;;9.50;6.70;;;;;;;5.50;64.94;97380.36;232798;1219;138825;-58
2022/03/31 17:11:29;;;;;;;9.60;7.20;;;;;;;5.42;64.85;97378.06;232899;1219;138818;-57
2022/03/31 17:16:32;;;;;;;8.80;6.70;;;;;;;5.35;64.83;97377.98;232762;1219;138695;-56
2022/03/31 17:21:35;;;;;;;9.00;6.50;;;;;;;5.29;65.09;97380.05;232836;1219;139820;-57
2022/03/31 17:26:39;;;;;;;9.30;6.40;;;;;;;5.15;64.89;97376.02;232840;1220;138761;-62
2022/03/31 17:31:42;;;;;;;9.10;6.70;;;;;;;5.02;64.65;97383.56;232800;1219;139063;-59
2022/03/31 17:36:45;;;;;;;6.70;5.70;;;;;;;4.94;64.88;97377.92;232737;1219;138801;-57
2022/03/31 17:41:48;;;;;;;108.50;75.90;;;;;;;4.90;65.27;97373.63;232950;1219;138866;-56
2022/03/31 17:46:51;;;;;;;11.10;7.20;;;;;;;5.02;65.67;97376.02;232777;1219;140348;-58
2022/03/31 17:51:54;;;;;;;10.30;7.30;;;;;;;5.03;65.11;97372.06;232801;1219;141331;-58
2022/03/31 17:56:57;;;;;;;9.00;6.60;;;;;;;4.99;65.01;97367.99;232868;1219;142686;-57
2022/03/31 18:02:01;;;;;;;10.90;7.40;;;;;;;4.92;65.09;97368.58;232778;1219;139326;-61
2022/03/31 18:07:04;;;;;;;7.90;6.30;;;;;;;4.85;64.70;97371.65;232844;1219;139446;-58
2022/03/31 18:12:08;;;;;;;8.00;6.20;;;;;;;4.76;64.90;97371.20;233028;1219;139105;-59
2022/03/31 18:17:11;;;;;;;10.20;6.60;;;;;;;4.65;64.60;97375.98;232801;1220;139125;-61
2022/03/31 18:22:16;;;;;;;7.10;5.20;;;;;;;4.55;64.91;97372.91;232878;1219;139340;-61
2022/03/31 18:27:19;;;;;;;10.90;7.00;;;;;;;4.48;64.97;97376.70;232859;1220;139688;-58
2022/03/31 18:37:44;;;;;;;8.80;5.90;;;;;;;4.39;65.09;97379.72;232843;1220;139365;-57
2022/03/31 18:42:48;;;;;;;9.30;5.70;;;;;;;4.41;65.16;97382.80;232925;1220;140775;-57
2022/03/31 18:47:52;;;;;;;9.00;6.10;;;;;;;4.42;65.37;97383.23;232954;1220;139269;-60
2022/03/31 18:52:56;;;;;;;9.60;5.90;;;;;;;4.44;65.36;97385.23;232692;1220;138665;-59
2022/03/31 18:58:00;;;;;;;67.40;45.80;;;;;;;4.46;65.84;97381.08;232960;1220;139216;-58
2022/03/31 19:03:03;;;;;;;13.20;8.70;;;;;;;4.61;65.81;97376.27;232963;1219;139861;-58
2022/03/31 19:08:14;;;;;;;10.40;6.50;;;;;;;4.52;65.43;97373.98;232658;1221;139069;-56
2022/03/31 19:13:20;;;;;;;8.70;6.30;;;;;;;4.44;65.42;97376.27;232870;1220;141328;-57
2022/03/31 19:18:23;;;;;;;8.30;5.80;;;;;;;4.38;65.27;97379.29;232848;1220;139899;-57
2022/03/31 19:23:26;;;;;;;9.00;5.60;;;;;;;4.32;65.25;97371.23;233033;1220;138998;-58
2022/03/31 19:28:29;;;;;;;8.50;6.00;;;;;;;4.29;65.32;97366.16;232880;1220;139722;-58
2022/03/31 19:33:32;;;;;;;9.70;5.80;;;;;;;4.29;65.34;97366.90;232790;1220;141117;-57
2022/03/31 19:38:37;;;;;;;8.10;5.80;;;;;;;4.30;65.54;97369.48;232854;1220;139590;-57
2022/03/31 19:43:43;;;;;;;10.00;5.10;;;;;;;4.28;65.50;97364.84;232901;1219;139266;-57
2022/03/31 19:48:47;;;;;;;;;;;;;;;4.26;65.49;97359.70;232977;1220;139554;-56
2022/03/31 19:53:50;;;;;;;7.20;5.30;;;;;;;4.22;65.72;97350.64;232930;1219;125061;-56
2022/03/31 19:58:52;;;;;;;7.80;5.40;;;;;;;4.19;65.57;97349.42;232913;1220;138635;-55
2022/03/31 20:03:55;;;;;;;819.00;521.10;;;;;;;4.32;67.35;97337.52;232928;1220;139470;-58
2022/03/31 20:08:58;;;;;;;13.90;7.80;;;;;;;5.91;70.34;97324.74;232839;1220;140378;-58
2022/03/31 20:14:05;;;;;;;9.50;5.80;;;;;;;5.80;65.69;97323.01;233032;1220;140033;-57
2022/03/31 20:19:09;;;;;;;11.50;6.20;;;;;;;5.47;64.87;97320.02;232950;1219;139382;-57
2022/03/31 20:24:13;;;;;;;7.10;5.50;;;;;;;5.20;64.53;97316.42;232989;1219;139251;-57
2022/03/31 20:29:17;;;;;;;8.70;5.60;;;;;;;4.97;64.61;97312.15;232940;1219;138710;-58
2022/03/31 20:34:20;;;;;;;8.10;4.90;;;;;;;4.76;64.87;97307.80;232858;1220;138693;-57
2022/03/31 20:39:23;;;;;;;6.80;5.00;;;;;;;4.59;64.86;97301.53;232786;1220;138534;-57
2022/03/31 20:44:26;;;;;;;7.20;4.70;;;;;;;4.45;65.08;97302.48;232932;1220;138500;-58
2022/03/31 20:49:29;;;;;;;6.20;4.60;;;;;;;4.32;65.04;97296.83;232835;1220;138887;-57
2022/03/31 20:54:33;;;;;;;6.70;4.60;;;;;;;4.22;65.03;97293.10;232912;1220;139315;-57
2022/03/31 20:59:36;;;;;;;15.80;10.10;;;;;;;4.19;65.57;97288.19;233074;1220;139129;-57
2022/03/31 21:04:39;;;;;;;8.20;5.20;;;;;;;4.24;65.49;97286.25;233024;1219;140086;-57
2022/03/31 21:09:42;;;;;;;7.70;5.20;;;;;;;4.22;65.34;97287.98;232925;1220;139353;-56
2022/03/31 21:14:49;;;;;;;5.30;3.80;;;;;;;4.20;65.47;97282.48;232908;1220;138388;-57
2022/03/31 21:19:52;;;;;;;6.50;4.20;;;;;;;4.18;65.38;97278.05;232855;1220;140844;-58
2022/03/31 21:24:55;;;;;;;6.60;3.90;;;;;;;4.16;65.67;97277.12;232860;1219;139329;-57
2022/03/31 21:29:58;;;;;;;6.00;3.90;;;;;;;4.13;65.47;97273.52;233065;1220;139857;-58
2022/03/31 21:35:03;;;;;;;6.40;4.00;;;;;;;4.06;65.59;97271.13;232753;1220;139124;-57
2022/03/31 21:40:07;;;;;;;6.10;4.20;;;;;;;4.02;65.65;97265.08;232912;1220;140987;-57
2022/03/31 21:45:13;;;;;;;4.80;3.70;;;;;;;3.96;65.67;97264.71;232906;1220;139354;-57
2022/03/31 21:50:16;;;;;;;4.20;3.20;;;;;;;3.98;65.79;97259.17;232899;1220;141366;-57
2022/03/31 22:00:42;;;;;;;5.60;4.00;;;;;;;4.09;65.90;97255.14;230102;1233;636192;-57
2022/03/31 22:05:57;;;;;;;5.20;3.30;;;;;;;4.11;65.91;97249.58;232821;1223;138989;-56
2022/03/31 22:16:22;;;;;;;5.90;4.40;;;;;;;4.07;65.82;97239.16;232288;1223;139010;-57
2022/03/31 22:21:25;;;;;;;5.10;4.30;;;;;;;4.00;65.86;97233.04;232652;1222;139226;-57
2022/03/31 22:26:29;;;;;;;6.50;4.40;;;;;;;3.94;65.78;97225.42;232807;1222;137449;-56
2022/03/31 22:31:33;;;;;;;5.40;4.30;;;;;;;3.91;66.03;97228.44;233318;1219;137861;-56
2022/03/31 22:36:37;;;;;;;5.90;4.00;;;;;;;3.90;65.95;97225.33;233133;1219;138194;-56
2022/03/31 22:41:42;;;;;;;5.50;3.80;;;;;;;3.89;66.04;97218.02;233276;1219;138550;-56
2022/03/31 22:46:47;;;;;;;4.70;3.90;;;;;;;3.95;66.14;97216.73;233277;1217;138424;-57
2022/03/31 22:51:51;;;;;;;5.40;4.50;;;;;;;3.99;66.13;97209.29;232990;1219;138311;-56
2022/03/31 22:56:54;;;;;;;4.70;4.20;;;;;;;3.99;66.00;97204.52;233082;1220;138625;-57
2022/03/31 23:01:58;;;;;;;366.30;223.10;;;;;;;3.98;66.14;97199.48;232919;1220;137776;-55
2022/03/31 23:07:01;;;;;;;17.90;10.80;;;;;;;4.06;66.37;97192.33;233163;1220;138542;-56
2022/03/31 23:12:05;;;;;;;8.40;5.60;;;;;;;4.04;66.21;97188.98;233388;1219;139394;-57
2022/03/31 23:17:08;;;;;;;10.10;5.20;;;;;;;3.99;66.17;97185.42;233167;1219;137982;-56
2022/03/31 23:22:11;;;;;;;10.90;5.20;;;;;;;3.94;66.16;97181.52;233182;1220;138156;-57
2022/03/31 23:27:14;;;;;;;5.50;4.30;;;;;;;3.89;66.07;97175.88;233236;1220;140193;-57
2022/03/31 23:32:17;;;;;;;4.00;3.50;;;;;;;3.90;66.04;97172.48;233097;1220;138801;-55
2022/03/31 23:37:20;;;;;;;5.30;3.70;;;;;;;3.94;66.19;97168.00;233216;1220;138828;-57
2022/03/31 23:42:23;;;;;;;5.00;3.70;;;;;;;3.98;66.48;97169.73;233454;1217;138014;-56
2022/03/31 23:47:27;;;;;;;4.00;3.60;;;;;;;3.99;66.38;97168.54;233213;1219;138172;-57
2022/03/31 23:52:30;;;;;;;5.20;3.80;;;;;;;4.02;66.29;97168.73;233139;1220;139101;-56
2022/03/31 23:57:34;;;;;;;4.30;3.60;;;;;;;4.00;66.15;97161.83;233276;1219;138353;-56
